Port Colborne, Canada
Current Conditions -  °F | °C
As of 5:53 AM on Thursday 23 Oct 2014 (Local Time) from KIAG Reporting Station
Clear Clear  
Wind Chill: 40°   Ceiling: Unl
Heat Index: 44°   Visibility: 10mi
Dew Point: 41°   Wind: 8mph
Humidity: 89%   Direction: 340°NNW
Pressure: 30.15"   Gusts: NA
Location:  42.89°N, 79.25°W
Report Text: KIAG 230953Z AUTO 34007KT 10SM CLR 07/05 A3015 RMK AO2 SLP218 T00670050
Loading
Personal Weather Stations






























Interactive Weather Map New forecast layout! Learn more

10-Day Weather Forecast

Advertisements
Track Severe Weather on mobile